sensor_id;sensor_type;location;lat;lon;timestamp;pressure;altitude;pressure_sealevel;temperature;humidity
38022;BME280;23832;43.216;27.946;2022-11-10T00:01:53;101651.44;;;14.40;100.00
38022;BME280;23832;43.216;27.946;2022-11-10T00:03:54;101646.31;;;14.39;100.00
38022;BME280;23832;43.216;27.946;2022-11-10T00:05:58;101645.63;;;14.37;100.00
38022;BME280;23832;43.216;27.946;2022-11-10T00:08:02;101650.94;;;14.37;100.00
38022;BME280;23832;43.216;27.946;2022-11-10T00:10:06;101639.50;;;14.36;100.00
38022;BME280;23832;43.216;27.946;2022-11-10T00:12:08;101643.34;;;14.34;100.00
38022;BME280;23832;43.216;27.946;2022-11-10T00:14:09;101658.41;;;14.33;100.00
38022;BME280;23832;43.216;27.946;2022-11-10T00:16:30;101638.38;;;14.31;100.00
38022;BME280;23832;43.216;27.946;2022-11-10T00:18:50;101633.41;;;14.28;100.00
38022;BME280;23832;43.216;27.946;2022-11-10T00:20:51;101630.09;;;14.26;100.00
38022;BME280;23832;43.216;27.946;2022-11-10T00:22:53;101633.09;;;14.23;100.00
38022;BME280;23832;43.216;27.946;2022-11-10T00:24:55;101628.81;;;14.22;100.00
38022;BME280;23832;43.216;27.946;2022-11-10T00:26:59;101625.47;;;14.19;100.00
38022;BME280;23832;43.216;27.946;2022-11-10T00:29:00;101630.97;;;14.18;100.00
38022;BME280;23832;43.216;27.946;2022-11-10T00:31:03;101631.97;;;14.17;100.00
38022;BME280;23832;43.216;27.946;2022-11-10T00:33:06;101628.66;;;14.15;100.00
38022;BME280;23832;43.216;27.946;2022-11-10T00:35:08;101628.00;;;14.13;100.00
38022;BME280;23832;43.216;27.946;2022-11-10T00:37:09;101629.00;;;14.12;100.00
38022;BME280;23832;43.216;27.946;2022-11-10T00:39:11;101623.84;;;14.10;100.00
38022;BME280;23832;43.216;27.946;2022-11-10T00:41:13;101622.38;;;14.08;100.00
38022;BME280;23832;43.216;27.946;2022-11-10T00:43:16;101619.91;;;14.06;100.00
38022;BME280;23832;43.216;27.946;2022-11-10T00:45:18;101623.56;;;14.05;100.00
38022;BME280;23832;43.216;27.946;2022-11-10T00:47:20;101626.38;;;14.04;100.00
38022;BME280;23832;43.216;27.946;2022-11-10T00:49:22;101622.22;;;14.01;100.00
38022;BME280;23832;43.216;27.946;2022-11-10T00:51:24;101618.09;;;13.99;100.00
38022;BME280;23832;43.216;27.946;2022-11-10T00:53:26;101620.94;;;13.97;100.00
38022;BME280;23832;43.216;27.946;2022-11-10T00:55:28;101621.13;;;13.96;100.00
38022;BME280;23832;43.216;27.946;2022-11-10T00:57:29;101624.09;;;13.92;100.00
38022;BME280;23832;43.216;27.946;2022-11-10T00:59:32;101620.97;;;13.89;100.00
38022;BME280;23832;43.216;27.946;2022-11-10T01:01:34;101618.66;;;13.86;100.00
38022;BME280;23832;43.216;27.946;2022-11-10T01:03:36;101613.69;;;13.83;100.00
38022;BME280;23832;43.216;27.946;2022-11-10T01:05:38;101615.69;;;13.81;100.00
38022;BME280;23832;43.216;27.946;2022-11-10T01:07:40;101619.50;;;13.78;100.00
38022;BME280;23832;43.216;27.946;2022-11-10T01:09:41;101618.03;;;13.76;100.00
38022;BME280;23832;43.216;27.946;2022-11-10T01:11:43;101610.41;;;13.73;100.00
38022;BME280;23832;43.216;27.946;2022-11-10T01:13:45;101615.88;;;13.71;100.00
38022;BME280;23832;43.216;27.946;2022-11-10T01:15:49;101613.41;;;13.70;100.00
38022;BME280;23832;43.216;27.946;2022-11-10T01:17:50;101612.75;;;13.68;100.00
38022;BME280;23832;43.216;27.946;2022-11-10T01:19:52;101609.41;;;13.66;100.00
38022;BME280;23832;43.216;27.946;2022-11-10T01:21:54;101607.75;;;13.64;100.00
38022;BME280;23832;43.216;27.946;2022-11-10T01:23:56;101605.47;;;13.61;100.00
38022;BME280;23832;43.216;27.946;2022-11-10T01:25:58;101609.13;;;13.60;100.00
38022;BME280;23832;43.216;27.946;2022-11-10T01:27:59;101608.47;;;13.58;100.00
38022;BME280;23832;43.216;27.946;2022-11-10T01:30:01;101606.81;;;13.57;100.00
38022;BME280;23832;43.216;27.946;2022-11-10T01:32:05;101609.47;;;13.57;100.00
38022;BME280;23832;43.216;27.946;2022-11-10T01:34:07;101609.59;;;13.56;100.00
38022;BME280;23832;43.216;27.946;2022-11-10T01:36:10;101604.47;;;13.54;100.00
38022;BME280;23832;43.216;27.946;2022-11-10T01:38:12;101604.66;;;13.53;100.00
38022;BME280;23832;43.216;27.946;2022-11-10T01:40:14;101604.66;;;13.53;100.00
38022;BME280;23832;43.216;27.946;2022-11-10T01:42:21;101605.81;;;13.50;100.00
38022;BME280;23832;43.216;27.946;2022-11-10T01:44:23;101610.31;;;13.50;100.00
38022;BME280;23832;43.216;27.946;2022-11-10T01:46:25;101611.28;;;13.49;100.00
38022;BME280;23832;43.216;27.946;2022-11-10T01:48:30;101602.66;;;13.47;100.00
38022;BME280;23832;43.216;27.946;2022-11-10T01:50:33;101606.31;;;13.46;100.00
38022;BME280;23832;43.216;27.946;2022-11-10T01:52:37;101608.13;;;13.45;100.00
38022;BME280;23832;43.216;27.946;2022-11-10T01:54:39;101609.13;;;13.44;100.00
38022;BME280;23832;43.216;27.946;2022-11-10T01:56:43;101611.13;;;13.42;100.00
38022;BME280;23832;43.216;27.946;2022-11-10T01:58:47;101604.19;;;13.41;100.00
38022;BME280;23832;43.216;27.946;2022-11-10T02:00:50;101614.94;;;13.40;100.00
38022;BME280;23832;43.216;27.946;2022-11-10T02:02:53;101610.47;;;13.40;100.00
38022;BME280;23832;43.216;27.946;2022-11-10T02:04:58;101616.78;;;13.39;100.00
38022;BME280;23832;43.216;27.946;2022-11-10T02:06:59;101617.59;;;13.40;100.00
38022;BME280;23832;43.216;27.946;2022-11-10T02:09:01;101614.13;;;13.39;100.00
38022;BME280;23832;43.216;27.946;2022-11-10T02:11:04;101607.97;;;13.39;100.00
38022;BME280;23832;43.216;27.946;2022-11-10T02:13:05;101610.63;;;13.39;100.00
38022;BME280;23832;43.216;27.946;2022-11-10T02:15:08;101612.44;;;13.38;100.00
38022;BME280;23832;43.216;27.946;2022-11-10T02:17:11;101609.66;;;13.40;100.00
38022;BME280;23832;43.216;27.946;2022-11-10T02:19:14;101612.31;;;13.40;100.00
38022;BME280;23832;43.216;27.946;2022-11-10T02:21:19;101613.97;;;13.41;100.00
38022;BME280;23832;43.216;27.946;2022-11-10T02:23:42;101611.13;;;13.42;100.00
38022;BME280;23832;43.216;27.946;2022-11-10T02:25:43;101614.44;;;13.44;100.00
38022;BME280;23832;43.216;27.946;2022-11-10T02:27:45;101615.09;;;13.46;100.00
38022;BME280;23832;43.216;27.946;2022-11-10T02:29:47;101612.44;;;13.46;100.00
38022;BME280;23832;43.216;27.946;2022-11-10T02:31:49;101616.75;;;13.47;100.00
38022;BME280;23832;43.216;27.946;2022-11-10T02:33:50;101616.75;;;13.47;100.00
38022;BME280;23832;43.216;27.946;2022-11-10T02:35:52;101611.47;;;13.39;100.00
38022;BME280;23832;43.216;27.946;2022-11-10T02:37:55;101620.75;;;13.35;100.00
38022;BME280;23832;43.216;27.946;2022-11-10T02:39:57;101613.78;;;13.34;100.00
38022;BME280;23832;43.216;27.946;2022-11-10T02:41:58;101609.50;;;13.33;100.00
38022;BME280;23832;43.216;27.946;2022-11-10T02:44:00;101622.72;;;13.33;100.00
38022;BME280;23832;43.216;27.946;2022-11-10T02:46:02;101621.72;;;13.34;100.00
38022;BME280;23832;43.216;27.946;2022-11-10T02:48:04;101612.97;;;13.33;100.00
38022;BME280;23832;43.216;27.946;2022-11-10T02:50:06;101612.78;;;13.35;100.00
38022;BME280;23832;43.216;27.946;2022-11-10T02:52:08;101613.63;;;13.35;100.00
38022;BME280;23832;43.216;27.946;2022-11-10T02:54:12;101617.09;;;13.36;100.00
38022;BME280;23832;43.216;27.946;2022-11-10T02:56:14;101614.44;;;13.36;100.00
38022;BME280;23832;43.216;27.946;2022-11-10T02:58:15;101617.91;;;13.37;100.00
38022;BME280;23832;43.216;27.946;2022-11-10T03:00:17;101618.91;;;13.35;100.00
38022;BME280;23832;43.216;27.946;2022-11-10T03:02:19;101615.44;;;13.35;100.00
38022;BME280;23832;43.216;27.946;2022-11-10T03:04:21;101620.75;;;13.35;100.00
38022;BME280;23832;43.216;27.946;2022-11-10T03:06:23;101618.09;;;13.35;100.00
38022;BME280;23832;43.216;27.946;2022-11-10T03:08:24;101613.78;;;13.34;100.00
38022;BME280;23832;43.216;27.946;2022-11-10T03:10:28;101614.63;;;13.34;100.00
38022;BME280;23832;43.216;27.946;2022-11-10T03:12:30;101621.91;;;13.32;100.00
38022;BME280;23832;43.216;27.946;2022-11-10T03:14:32;101618.44;;;13.32;100.00
38022;BME280;23832;43.216;27.946;2022-11-10T03:16:33;101613.13;;;13.32;100.00
38022;BME280;23832;43.216;27.946;2022-11-10T03:18:35;101619.44;;;13.31;100.00
38022;BME280;23832;43.216;27.946;2022-11-10T03:20:36;101627.38;;;13.31;100.00
38022;BME280;23832;43.216;27.946;2022-11-10T03:22:40;101620.44;;;13.30;100.00
38022;BME280;23832;43.216;27.946;2022-11-10T03:24:41;101618.59;;;13.30;100.00
38022;BME280;23832;43.216;27.946;2022-11-10T03:26:44;101627.50;;;13.29;100.00
38022;BME280;23832;43.216;27.946;2022-11-10T03:28:46;101618.59;;;13.30;100.00
38022;BME280;23832;43.216;27.946;2022-11-10T03:30:48;101619.44;;;13.31;100.00
38022;BME280;23832;43.216;27.946;2022-11-10T03:32:49;101621.25;;;13.30;100.00
38022;BME280;23832;43.216;27.946;2022-11-10T03:34:51;101631.69;;;13.32;100.00
38022;BME280;23832;43.216;27.946;2022-11-10T03:36:53;101622.06;;;13.31;100.00
38022;BME280;23832;43.216;27.946;2022-11-10T03:38:55;101623.91;;;13.30;100.00
38022;BME280;23832;43.216;27.946;2022-11-10T03:40:57;101622.06;;;13.31;100.00
38022;BME280;23832;43.216;27.946;2022-11-10T03:43:00;101613.31;;;13.30;100.00
38022;BME280;23832;43.216;27.946;2022-11-10T03:45:02;101621.09;;;13.32;100.00
38022;BME280;23832;43.216;27.946;2022-11-10T03:47:04;101618.59;;;13.30;100.00
38022;BME280;23832;43.216;27.946;2022-11-10T03:49:06;101617.59;;;13.31;100.00
38022;BME280;23832;43.216;27.946;2022-11-10T03:51:07;101620.09;;;13.33;100.00
38022;BME280;23832;43.216;27.946;2022-11-10T03:53:09;101621.09;;;13.32;100.00
38022;BME280;23832;43.216;27.946;2022-11-10T03:55:11;101624.56;;;13.32;100.00
38022;BME280;23832;43.216;27.946;2022-11-10T03:57:13;101627.19;;;13.32;100.00
38022;BME280;23832;43.216;27.946;2022-11-10T03:59:16;101626.38;;;13.32;100.00
38022;BME280;23832;43.216;27.946;2022-11-10T04:01:18;101630.69;;;13.33;100.00
38022;BME280;23832;43.216;27.946;2022-11-10T04:03:20;101630.69;;;13.33;100.00
38022;BME280;23832;43.216;27.946;2022-11-10T04:05:22;101635.16;;;13.32;100.00
38022;BME280;23832;43.216;27.946;2022-11-10T04:07:41;101634.50;;;13.30;100.00
38022;BME280;23832;43.216;27.946;2022-11-10T04:10:00;101638.97;;;13.30;100.00
38022;BME280;23832;43.216;27.946;2022-11-10T04:12:02;101632.81;;;13.29;100.00
38022;BME280;23832;43.216;27.946;2022-11-10T04:14:23;101631.34;;;13.27;100.00
38022;BME280;23832;43.216;27.946;2022-11-10T04:16:42;101635.97;;;13.25;100.00
38022;BME280;23832;43.216;27.946;2022-11-10T04:18:44;101639.63;;;13.24;100.00
38022;BME280;23832;43.216;27.946;2022-11-10T04:20:46;101635.31;;;13.23;100.00
38022;BME280;23832;43.216;27.946;2022-11-10T04:22:47;101637.97;;;13.23;100.00
38022;BME280;23832;43.216;27.946;2022-11-10T04:25:06;101641.63;;;13.22;100.00
38022;BME280;23832;43.216;27.946;2022-11-10T04:27:08;101640.78;;;13.21;100.00
38022;BME280;23832;43.216;27.946;2022-11-10T04:29:10;101644.41;;;13.20;100.00
38022;BME280;23832;43.216;27.946;2022-11-10T04:31:13;101637.44;;;13.19;100.00
38022;BME280;23832;43.216;27.946;2022-11-10T04:33:17;101644.72;;;13.17;100.00
38022;BME280;23832;43.216;27.946;2022-11-10T04:35:19;101639.59;;;13.16;100.00
38022;BME280;23832;43.216;27.946;2022-11-10T04:37:20;101642.56;;;13.13;100.00
38022;BME280;23832;43.216;27.946;2022-11-10T04:39:22;101643.72;;;13.10;100.00
38022;BME280;23832;43.216;27.946;2022-11-10T04:41:24;101647.53;;;13.07;100.00
38022;BME280;23832;43.216;27.946;2022-11-10T04:43:26;101648.50;;;13.06;100.00
38022;BME280;23832;43.216;27.946;2022-11-10T04:45:29;101654.16;;;13.03;100.00
38022;BME280;23832;43.216;27.946;2022-11-10T04:47:32;101652.47;;;13.02;100.00
38022;BME280;23832;43.216;27.946;2022-11-10T04:49:33;101650.00;;;13.01;100.00
38022;BME280;23832;43.216;27.946;2022-11-10T04:51:36;101674.63;;;13.01;100.00
38022;BME280;23832;43.216;27.946;2022-11-10T04:53:38;101650.81;;;13.01;100.00
38022;BME280;23832;43.216;27.946;2022-11-10T04:55:40;101652.47;;;13.02;100.00
38022;BME280;23832;43.216;27.946;2022-11-10T04:57:42;101656.28;;;13.00;100.00
38022;BME280;23832;43.216;27.946;2022-11-10T04:59:44;101657.09;;;13.00;100.00
38022;BME280;23832;43.216;27.946;2022-11-10T05:01:45;101656.94;;;13.02;100.00
38022;BME280;23832;43.216;27.946;2022-11-10T05:03:49;101661.41;;;13.01;100.00
38022;BME280;23832;43.216;27.946;2022-11-10T05:05:51;101661.25;;;13.03;100.00
38022;BME280;23832;43.216;27.946;2022-11-10T05:07:53;101666.38;;;13.04;100.00
38022;BME280;23832;43.216;27.946;2022-11-10T05:09:54;101657.44;;;13.05;100.00
38022;BME280;23832;43.216;27.946;2022-11-10T05:11:56;101664.06;;;13.10;100.00
38022;BME280;23832;43.216;27.946;2022-11-10T05:13:58;101670.69;;;13.14;100.00
38022;BME280;23832;43.216;27.946;2022-11-10T05:16:00;101661.41;;;13.18;100.00
38022;BME280;23832;43.216;27.946;2022-11-10T05:18:02;101672.22;;;13.24;100.00
38022;BME280;23832;43.216;27.946;2022-11-10T05:20:06;101674.34;;;13.29;100.00
38022;BME280;23832;43.216;27.946;2022-11-10T05:22:10;101679.00;;;13.35;100.00
38022;BME280;23832;43.216;27.946;2022-11-10T05:24:15;101680.19;;;13.41;100.00
38022;BME280;23832;43.216;27.946;2022-11-10T05:26:17;101681.31;;;13.46;100.00
38022;BME280;23832;43.216;27.946;2022-11-10T05:28:19;101692.25;;;13.51;100.00
38022;BME280;23832;43.216;27.946;2022-11-10T05:30:21;101689.91;;;13.56;100.00
38022;BME280;23832;43.216;27.946;2022-11-10T05:32:23;101691.91;;;13.62;100.00
38022;BME280;23832;43.216;27.946;2022-11-10T05:34:24;101694.56;;;13.71;100.00
38022;BME280;23832;43.216;27.946;2022-11-10T05:36:28;101700.50;;;13.81;100.00
38022;BME280;23832;43.216;27.946;2022-11-10T05:38:30;101699.81;;;13.95;100.00
38022;BME280;23832;43.216;27.946;2022-11-10T05:40:32;101706.56;;;14.14;100.00
38022;BME280;23832;43.216;27.946;2022-11-10T05:42:34;101707.81;;;14.34;100.00
38022;BME280;23832;43.216;27.946;2022-11-10T05:44:42;101710.41;;;14.59;100.00
38022;BME280;23832;43.216;27.946;2022-11-10T05:46:44;101717.59;;;14.81;100.00
38022;BME280;23832;43.216;27.946;2022-11-10T05:48:45;101721.94;;;15.05;100.00
38022;BME280;23832;43.216;27.946;2022-11-10T05:50:47;101717.47;;;15.28;100.00
38022;BME280;23832;43.216;27.946;2022-11-10T05:52:51;101725.59;;;15.50;100.00
38022;BME280;23832;43.216;27.946;2022-11-10T05:54:53;101724.75;;;15.72;100.00
38022;BME280;23832;43.216;27.946;2022-11-10T05:56:54;101728.41;;;15.94;100.00
38022;BME280;23832;43.216;27.946;2022-11-10T05:58:56;101733.81;;;16.15;100.00
38022;BME280;23832;43.216;27.946;2022-11-10T06:00:58;101740.06;;;16.37;100.00
38022;BME280;23832;43.216;27.946;2022-11-10T06:03:00;101747.13;;;16.60;100.00
38022;BME280;23832;43.216;27.946;2022-11-10T06:05:03;101740.41;;;16.79;100.00
38022;BME280;23832;43.216;27.946;2022-11-10T06:07:04;101738.34;;;16.95;100.00
38022;BME280;23832;43.216;27.946;2022-11-10T06:09:08;101743.47;;;17.12;100.00
38022;BME280;23832;43.216;27.946;2022-11-10T06:11:10;101750.00;;;17.30;100.00
38022;BME280;23832;43.216;27.946;2022-11-10T06:13:12;101745.06;;;17.49;100.00
38022;BME280;23832;43.216;27.946;2022-11-10T06:15:14;101749.91;;;17.67;100.00
38022;BME280;23832;43.216;27.946;2022-11-10T06:17:16;101742.94;;;17.87;100.00
38022;BME280;23832;43.216;27.946;2022-11-10T06:19:18;101748.38;;;18.00;100.00
38022;BME280;23832;43.216;27.946;2022-11-10T06:21:20;101749.25;;;18.07;100.00
38022;BME280;23832;43.216;27.946;2022-11-10T06:23:21;101744.38;;;18.18;100.00
38022;BME280;23832;43.216;27.946;2022-11-10T06:25:25;101749.78;;;18.31;100.00
38022;BME280;23832;43.216;27.946;2022-11-10T06:27:27;101746.38;;;18.43;100.00
38022;BME280;23832;43.216;27.946;2022-11-10T06:29:28;101743.75;;;18.57;100.00
38022;BME280;23832;43.216;27.946;2022-11-10T06:31:30;101741.94;;;18.64;100.00
38022;BME280;23832;43.216;27.946;2022-11-10T06:33:32;101745.31;;;18.73;100.00
38022;BME280;23832;43.216;27.946;2022-11-10T06:35:34;101748.22;;;18.84;100.00
38022;BME280;23832;43.216;27.946;2022-11-10T06:37:36;101746.22;;;18.99;100.00
38022;BME280;23832;43.216;27.946;2022-11-10T06:39:39;101749.34;;;19.16;100.00
38022;BME280;23832;43.216;27.946;2022-11-10T06:41:42;101752.25;;;19.35;100.00
38022;BME280;23832;43.216;27.946;2022-11-10T06:43:43;101752.47;;;19.53;100.00
38022;BME280;23832;43.216;27.946;2022-11-10T06:45:45;101751.09;;;19.70;100.00
38022;BME280;23832;43.216;27.946;2022-11-10T06:47:47;101756.00;;;19.93;100.00
38022;BME280;23832;43.216;27.946;2022-11-10T06:49:49;101755.56;;;20.16;100.00
38022;BME280;23832;43.216;27.946;2022-11-10T06:51:51;101754.06;;;20.40;100.00
38022;BME280;23832;43.216;27.946;2022-11-10T06:53:52;101749.28;;;20.62;100.00
38022;BME280;23832;43.216;27.946;2022-11-10T06:55:54;101747.09;;;20.84;100.00
38022;BME280;23832;43.216;27.946;2022-11-10T06:57:57;101744.72;;;21.07;100.00
38022;BME280;23832;43.216;27.946;2022-11-10T06:59:59;101743.16;;;21.31;100.00
38022;BME280;23832;43.216;27.946;2022-11-10T07:02:01;101747.34;;;21.52;100.00
38022;BME280;23832;43.216;27.946;2022-11-10T07:04:02;101755.22;;;21.72;100.00
38022;BME280;23832;43.216;27.946;2022-11-10T07:06:05;101745.34;;;21.91;100.00
38022;BME280;23832;43.216;27.946;2022-11-10T07:08:07;101746.63;;;22.13;100.00
38022;BME280;23832;43.216;27.946;2022-11-10T07:10:09;101741.03;;;22.33;100.00
38022;BME280;23832;43.216;27.946;2022-11-10T07:12:11;101736.22;;;22.53;100.00
38022;BME280;23832;43.216;27.946;2022-11-10T07:14:14;101738.91;;;22.72;100.00
38022;BME280;23832;43.216;27.946;2022-11-10T07:16:16;101744.16;;;22.85;100.00
38022;BME280;23832;43.216;27.946;2022-11-10T07:18:17;101746.41;;;23.00;100.00
38022;BME280;23832;43.216;27.946;2022-11-10T07:20:19;101743.06;;;23.16;100.00
38022;BME280;23832;43.216;27.946;2022-11-10T07:22:20;101743.25;;;23.33;100.00
38022;BME280;23832;43.216;27.946;2022-11-10T07:24:24;101741.53;;;23.50;100.00
38022;BME280;23832;43.216;27.946;2022-11-10T07:26:29;101746.25;;;23.66;97.04
38022;BME280;23832;43.216;27.946;2022-11-10T07:28:31;101745.56;;;23.83;92.86
38022;BME280;23832;43.216;27.946;2022-11-10T07:30:34;101738.88;;;23.97;89.22
38022;BME280;23832;43.216;27.946;2022-11-10T07:32:35;101744.81;;;24.22;87.32
38022;BME280;23832;43.216;27.946;2022-11-10T07:34:37;101746.91;;;24.44;85.92
38022;BME280;23832;43.216;27.946;2022-11-10T07:36:39;101751.09;;;24.63;81.76
38022;BME280;23832;43.216;27.946;2022-11-10T07:38:41;101743.91;;;24.80;79.72
38022;BME280;23832;43.216;27.946;2022-11-10T07:40:42;101743.69;;;24.99;77.97
38022;BME280;23832;43.216;27.946;2022-11-10T07:42:45;101751.50;;;25.12;73.22
38022;BME280;23832;43.216;27.946;2022-11-10T07:44:46;101753.06;;;25.25;72.47
38022;BME280;23832;43.216;27.946;2022-11-10T07:46:49;101753.75;;;25.32;66.70
38022;BME280;23832;43.216;27.946;2022-11-10T07:48:51;101745.38;;;25.33;63.36
38022;BME280;23832;43.216;27.946;2022-11-10T07:50:53;101746.06;;;25.40;64.87
38022;BME280;23832;43.216;27.946;2022-11-10T07:53:01;101758.84;;;25.45;63.25
38022;BME280;23832;43.216;27.946;2022-11-10T07:55:02;101754.91;;;25.53;63.19
38022;BME280;23832;43.216;27.946;2022-11-10T07:57:05;101761.03;;;25.65;63.09
38022;BME280;23832;43.216;27.946;2022-11-10T07:59:06;101756.38;;;25.77;63.40
38022;BME280;23832;43.216;27.946;2022-11-10T08:01:08;101760.97;;;25.93;63.48
38022;BME280;23832;43.216;27.946;2022-11-10T08:03:12;101755.28;;;26.12;62.57
38022;BME280;23832;43.216;27.946;2022-11-10T08:05:15;101753.34;;;26.29;61.24
38022;BME280;23832;43.216;27.946;2022-11-10T08:07:16;101751.19;;;26.48;60.78
38022;BME280;23832;43.216;27.946;2022-11-10T08:09:18;101757.03;;;26.62;58.07
38022;BME280;23832;43.216;27.946;2022-11-10T08:11:20;101753.38;;;26.73;57.20
38022;BME280;23832;43.216;27.946;2022-11-10T08:13:22;101755.44;;;26.87;56.88
38022;BME280;23832;43.216;27.946;2022-11-10T08:15:26;101758.31;;;27.03;55.92
38022;BME280;23832;43.216;27.946;2022-11-10T08:17:28;101750.88;;;27.15;54.39
38022;BME280;23832;43.216;27.946;2022-11-10T08:19:31;101757.72;;;27.28;53.50
38022;BME280;23832;43.216;27.946;2022-11-10T08:21:33;101755.38;;;27.36;51.67
38022;BME280;23832;43.216;27.946;2022-11-10T08:23:34;101758.97;;;27.47;52.46
38022;BME280;23832;43.216;27.946;2022-11-10T08:25:36;101760.19;;;27.61;52.04
38022;BME280;23832;43.216;27.946;2022-11-10T08:27:38;101755.97;;;27.76;50.99
38022;BME280;23832;43.216;27.946;2022-11-10T08:29:40;101751.72;;;27.90;50.85
38022;BME280;23832;43.216;27.946;2022-11-10T08:31:42;101762.38;;;28.02;49.44
38022;BME280;23832;43.216;27.946;2022-11-10T08:33:43;101758.34;;;28.09;48.85
38022;BME280;23832;43.216;27.946;2022-11-10T08:35:47;101757.84;;;28.17;48.59
38022;BME280;23832;43.216;27.946;2022-11-10T08:37:50;101758.97;;;28.26;48.03
38022;BME280;23832;43.216;27.946;2022-11-10T08:39:51;101757.97;;;28.33;46.88
38022;BME280;23832;43.216;27.946;2022-11-10T08:41:53;101752.53;;;28.33;46.36
38022;BME280;23832;43.216;27.946;2022-11-10T08:43:55;101757.97;;;28.38;47.40
38022;BME280;23832;43.216;27.946;2022-11-10T08:45:56;101766.13;;;28.48;47.63
38022;BME280;23832;43.216;27.946;2022-11-10T08:47:58;101753.19;;;28.60;46.93
38022;BME280;23832;43.216;27.946;2022-11-10T08:50:01;101758.09;;;28.73;46.56
38022;BME280;23832;43.216;27.946;2022-11-10T08:52:04;101763.00;;;28.81;45.36
38022;BME280;23832;43.216;27.946;2022-11-10T08:54:06;101756.53;;;28.93;45.54
38022;BME280;23832;43.216;27.946;2022-11-10T08:56:08;101752.78;;;29.04;45.36
38022;BME280;23832;43.216;27.946;2022-11-10T08:58:10;101748.97;;;29.15;44.66
38022;BME280;23832;43.216;27.946;2022-11-10T09:00:12;101753.88;;;29.28;44.05
38022;BME280;23832;43.216;27.946;2022-11-10T09:02:15;101747.91;;;29.42;44.25
38022;BME280;23832;43.216;27.946;2022-11-10T09:04:16;101754.72;;;29.49;42.89
38022;BME280;23832;43.216;27.946;2022-11-10T09:06:18;101754.72;;;29.59;43.02
38022;BME280;23832;43.216;27.946;2022-11-10T09:08:22;101751.97;;;29.70;42.37
38022;BME280;23832;43.216;27.946;2022-11-10T09:10:23;101752.78;;;29.80;42.21
38022;BME280;23832;43.216;27.946;2022-11-10T09:12:25;101759.28;;;29.94;42.36
38022;BME280;23832;43.216;27.946;2022-11-10T09:14:27;101752.47;;;30.07;41.61
38022;BME280;23832;43.216;27.946;2022-11-10T09:16:28;101754.31;;;30.22;41.49
38022;BME280;23832;43.216;27.946;2022-11-10T09:18:30;101759.72;;;30.27;40.33
38022;BME280;23832;43.216;27.946;2022-11-10T09:20:33;101764.59;;;30.35;40.55
38022;BME280;23832;43.216;27.946;2022-11-10T09:22:35;101760.50;;;30.43;39.90
38022;BME280;23832;43.216;27.946;2022-11-10T09:24:38;101760.19;;;30.49;38.47
38022;BME280;23832;43.216;27.946;2022-11-10T09:26:40;101746.06;;;30.42;36.49
38022;BME280;23832;43.216;27.946;2022-11-10T09:28:44;101753.25;;;30.23;36.78
38022;BME280;23832;43.216;27.946;2022-11-10T09:30:46;101759.53;;;29.98;35.96
38022;BME280;23832;43.216;27.946;2022-11-10T09:32:51;101749.78;;;29.82;37.12
38022;BME280;23832;43.216;27.946;2022-11-10T09:34:53;101746.28;;;29.76;37.48
38022;BME280;23832;43.216;27.946;2022-11-10T09:36:55;101750.59;;;29.72;37.31
38022;BME280;23832;43.216;27.946;2022-11-10T09:38:57;101753.59;;;29.71;36.50
38022;BME280;23832;43.216;27.946;2022-11-10T09:41:01;101751.16;;;29.79;37.98
38022;BME280;23832;43.216;27.946;2022-11-10T09:43:03;101749.75;;;29.97;38.36
38022;BME280;23832;43.216;27.946;2022-11-10T09:45:09;101747.84;;;30.08;38.19
38022;BME280;23832;43.216;27.946;2022-11-10T09:47:17;101753.81;;;30.15;37.21
38022;BME280;23832;43.216;27.946;2022-11-10T09:49:25;101740.22;;;30.15;36.46
38022;BME280;23832;43.216;27.946;2022-11-10T09:51:30;101743.69;;;30.26;37.55
38022;BME280;23832;43.216;27.946;2022-11-10T09:53:35;101741.44;;;30.48;38.32
38022;BME280;23832;43.216;27.946;2022-11-10T09:55:39;101742.16;;;30.69;37.05
38022;BME280;23832;43.216;27.946;2022-11-10T09:57:45;101736.72;;;30.69;34.87
38022;BME280;23832;43.216;27.946;2022-11-10T09:59:48;101740.56;;;30.58;35.39
38022;BME280;23832;43.216;27.946;2022-11-10T10:01:50;101737.00;;;30.62;36.76
38022;BME280;23832;43.216;27.946;2022-11-10T10:03:59;101736.06;;;30.82;37.84
38022;BME280;23832;43.216;27.946;2022-11-10T10:06:04;101735.88;;;31.13;38.25
38022;BME280;23832;43.216;27.946;2022-11-10T10:08:08;101733.16;;;31.13;35.28
38022;BME280;23832;43.216;27.946;2022-11-10T10:10:14;101728.84;;;31.06;35.00
38022;BME280;23832;43.216;27.946;2022-11-10T10:12:20;101731.56;;;31.06;35.26
38022;BME280;23832;43.216;27.946;2022-11-10T10:14:33;101733.75;;;31.04;34.45
38022;BME280;23832;43.216;27.946;2022-11-10T10:16:39;101734.56;;;31.05;34.97
38022;BME280;23832;43.216;27.946;2022-11-10T10:18:47;101728.00;;;31.11;35.36
38022;BME280;23832;43.216;27.946;2022-11-10T10:20:58;101728.13;;;31.30;36.13
38022;BME280;23832;43.216;27.946;2022-11-10T10:23:06;101725.91;;;31.37;34.53
38022;BME280;23832;43.216;27.946;2022-11-10T10:25:14;101729.00;;;31.54;35.57
38022;BME280;23832;43.216;27.946;2022-11-10T10:27:20;101732.34;;;31.75;35.48
38022;BME280;23832;43.216;27.946;2022-11-10T10:29:23;101735.78;;;31.86;33.91